Time;durP1;ratioP1;P1;durP2;ratioP2;P2;SDS_P1;SDS_P2;PMS_P1;PMS_P2;Temp;Humidity;BMP_temperature;BMP_pressure;BME280_temperature;BME280_humidity;BME280_pressure;Samples;Min_cycle;Max_cycle;Signal;HPM_P1;HPM_P2
2021/06/07 00:01:45;;;;;;;0.20;0.20;;;;;;;11.55;82.49;102510.03;4974803;28;20477;-82
2021/06/07 00:04:13;;;;;;;0.20;0.20;;;;;;;11.62;82.19;102526.16;4986363;28;20057;-82
2021/06/07 00:06:39;;;;;;;0.20;0.20;;;;;;;11.48;82.39;102500.81;5003146;28;20042;-82
2021/06/07 00:09:06;;;;;;;0.10;0.10;;;;;;;11.52;82.25;102506.75;4981124;28;20030;-82
2021/06/07 00:11:33;;;;;;;0.20;0.20;;;;;;;11.55;82.10;102504.81;4978480;28;20400;-83
2021/06/07 00:14:01;;;;;;;0.10;0.10;;;;;;;11.64;81.39;102511.25;4959165;28;20065;-83
2021/06/07 00:16:27;;;;;;;0.15;0.15;;;;;;;11.68;81.44;102524.09;4959667;28;20138;-83
2021/06/07 00:18:52;;;;;;;0.20;0.20;;;;;;;11.66;81.29;102512.00;4979666;28;20176;-83
2021/06/07 00:21:22;;;;;;;0.20;0.20;;;;;;;11.48;80.57;102477.34;4970809;28;20026;-82
2021/06/07 00:23:49;;;;;;;0.15;0.15;;;;;;;11.71;81.25;102510.00;4989140;28;20039;-83
2021/06/07 00:26:16;;;;;;;0.20;0.20;;;;;;;11.67;80.88;102496.31;4988565;28;20046;-82
2021/06/07 00:28:41;;;;;;;0.15;0.15;;;;;;;11.62;80.54;102497.47;4962882;28;20070;-82
2021/06/07 00:31:08;;;;;;;0.13;0.13;;;;;;;11.58;81.05;102501.19;4952291;28;20065;-82
2021/06/07 00:33:35;;;;;;;0.10;0.10;;;;;;;11.71;80.29;102528.28;4986732;28;20520;-81
2021/06/07 00:36:03;;;;;;;0.17;0.17;;;;;;;11.67;82.03;102526.75;5002883;28;20491;-82
2021/06/07 00:38:29;;;;;;;0.20;0.20;;;;;;;11.47;81.65;102510.41;4992855;28;20046;-82
2021/06/07 00:40:58;;;;;;;0.20;0.20;;;;;;;11.55;81.91;102515.22;4959639;28;20141;-82
2021/06/07 00:43:23;;;;;;;0.20;0.20;;;;;;;11.59;81.86;102528.94;4985708;28;20591;-82
2021/06/07 00:45:49;;;;;;;0.15;0.15;;;;;;;11.45;82.51;102512.28;4991625;28;20070;-82
2021/06/07 00:48:17;;;;;;;0.10;0.10;;;;;;;11.41;82.08;102521.19;4985823;28;20052;-82
2021/06/07 00:50:47;;;;;;;0.20;0.20;;;;;;;11.39;nan;102509.16;4959968;28;20583;-82
2021/06/07 00:53:14;;;;;;;0.25;0.25;;;;;;;11.48;82.40;102516.47;4970946;28;20055;-82
2021/06/07 00:55:48;;;;;;;0.20;0.20;;;;;;;11.42;82.08;102515.06;4999728;28;20042;-82
2021/06/07 00:58:16;;;;;;;0.20;0.20;;;;;;;11.44;83.78;102521.03;4989957;28;20053;-82
2021/06/07 01:00:42;;;;;;;0.20;0.20;;;;;;;11.38;81.90;102518.75;5000862;28;20623;-82
2021/06/07 01:03:09;;;;;;;0.20;0.20;;;;;;;11.40;82.37;102505.63;4974831;28;20093;-82
2021/06/07 01:05:35;;;;;;;0.20;0.20;;;;;;;11.26;82.57;102485.50;4974088;28;20736;-82
2021/06/07 01:08:02;;;;;;;0.20;0.20;;;;;;;11.48;81.58;102522.53;4966091;28;20042;-81
2021/06/07 01:10:28;;;;;;;0.30;0.30;;;;;;;11.46;81.54;102513.13;4970273;28;20141;-82
2021/06/07 01:12:53;;;;;;;0.20;0.20;;;;;;;11.48;82.10;102511.25;4975869;28;21456;-82
2021/06/07 01:15:19;;;;;;;0.20;0.20;;;;;;;11.58;81.30;102532.50;4971079;28;20070;-82
2021/06/07 01:17:46;;;;;;;0.20;0.20;;;;;;;11.50;81.96;102527.69;5002161;28;20035;-82
2021/06/07 01:20:15;;;;;;;0.20;0.20;;;;;;;11.46;82.97;102527.00;4984651;28;20045;-82
2021/06/07 01:22:42;;;;;;;0.20;0.20;;;;;;;11.52;81.47;102536.28;4972405;28;20074;-82
2021/06/07 01:25:12;;;;;;;0.10;0.10;;;;;;;11.35;83.41;102510.28;4974757;28;20456;-82
2021/06/07 01:27:38;;;;;;;0.10;0.10;;;;;;;11.40;81.80;102529.97;4971768;28;20078;-82
2021/06/07 01:30:09;;;;;;;0.20;0.20;;;;;;;11.23;81.59;102514.38;4956161;28;20504;-82
2021/06/07 01:32:35;;;;;;;0.20;0.20;;;;;;;11.23;82.15;102513.53;4968175;28;20484;-81
2021/06/07 01:35:02;;;;;;;0.13;0.13;;;;;;;11.08;82.11;102496.94;4972055;28;20049;-82
2021/06/07 01:37:28;;;;;;;0.20;0.20;;;;;;;11.24;82.08;102523.88;5001098;28;20080;-81
2021/06/07 01:39:53;;;;;;;0.20;0.20;;;;;;;11.00;83.25;102499.13;4957855;28;20043;-82
2021/06/07 01:42:19;;;;;;;0.20;0.20;;;;;;;11.12;83.91;102509.72;4959558;28;20436;-82
2021/06/07 01:44:44;;;;;;;0.20;0.20;;;;;;;11.17;84.00;102525.13;4952877;28;20476;-82
2021/06/07 01:47:10;;;;;;;0.20;0.20;;;;;;;10.99;83.93;102500.06;4957507;28;20039;-82
2021/06/07 01:49:35;;;;;;;0.20;0.20;;;;;;;11.12;84.41;102514.94;4961348;28;20089;-82
2021/06/07 01:52:01;;;;;;;0.13;0.13;;;;;;;11.01;84.32;102501.66;5001577;28;20038;-82
2021/06/07 01:54:27;;;;;;;0.20;0.20;;;;;;;11.03;84.16;102512.00;4962003;28;20066;-81
2021/06/07 01:56:53;;;;;;;0.20;0.20;;;;;;;10.97;84.41;102501.91;4950833;28;20044;-80
2021/06/07 01:59:18;;;;;;;0.20;0.20;;;;;;;10.88;84.56;102485.81;4975662;28;20433;-82
2021/06/07 02:01:44;;;;;;;0.20;0.20;;;;;;;11.01;84.46;102498.19;4966527;28;20039;-82
2021/06/07 02:04:09;;;;;;;0.20;0.20;;;;;;;11.11;84.00;102515.84;4983335;28;20062;-82
2021/06/07 02:06:35;;;;;;;0.20;0.20;;;;;;;11.04;84.43;102501.47;4957795;28;20046;-82
2021/06/07 02:09:03;;;;;;;0.20;0.20;;;;;;;11.10;84.03;102508.13;4993950;28;20045;-82
2021/06/07 02:11:29;;;;;;;0.20;0.20;;;;;;;11.15;83.63;102517.41;4957801;28;20076;-82
2021/06/07 02:13:58;;;;;;;0.20;0.20;;;;;;;10.98;82.87;102478.34;4970939;28;20039;-81
2021/06/07 02:16:27;;;;;;;0.30;0.30;;;;;;;11.01;83.87;102490.38;5001075;28;20669;-81
2021/06/07 02:18:53;;;;;;;0.17;0.17;;;;;;;10.96;84.24;102492.41;4998494;28;20100;-81
2021/06/07 02:21:24;;;;;;;0.20;0.20;;;;;;;10.89;84.01;102482.28;4999904;28;20388;-83
2021/06/07 02:23:49;;;;;;;0.13;0.13;;;;;;;11.05;84.54;102500.56;4979269;28;20046;-82
2021/06/07 02:26:16;;;;;;;0.20;0.20;;;;;;;11.10;83.51;102500.31;4973546;28;20472;-82
2021/06/07 02:29:00;;;;;;;0.20;0.20;;;;;;;11.04;83.49;102491.06;4975615;28;20049;-82
2021/06/07 02:31:29;;;;;;;0.20;0.20;;;;;;;11.14;83.87;102514.88;4985522;28;20145;-82
2021/06/07 02:33:56;;;;;;;0.20;0.20;;;;;;;11.04;83.18;102488.44;4970030;28;20512;-82
2021/06/07 02:36:25;;;;;;;0.20;0.20;;;;;;;11.19;83.93;102513.69;4971127;28;20209;-82
2021/06/07 02:38:52;;;;;;;0.10;0.10;;;;;;;11.15;82.29;102513.94;4986844;28;20070;-82
2021/06/07 02:41:19;;;;;;;0.20;0.20;;;;;;;11.12;82.41;102507.13;4971932;28;20027;-82
2021/06/07 02:43:45;;;;;;;0.10;0.10;;;;;;;11.16;82.87;102506.03;4994405;28;20057;-82
2021/06/07 02:46:11;;;;;;;0.20;0.20;;;;;;;11.09;82.97;102494.25;4975955;28;20068;-82
2021/06/07 02:48:38;;;;;;;0.20;0.20;;;;;;;11.14;83.17;102496.63;4953418;28;20142;-81
2021/06/07 02:51:04;;;;;;;0.10;0.10;;;;;;;11.15;82.41;102504.38;4949598;28;20042;-82
2021/06/07 02:53:30;;;;;;;0.20;0.20;;;;;;;11.02;83.04;102474.66;4956237;28;20053;-82
2021/06/07 02:55:56;;;;;;;0.20;0.20;;;;;;;11.06;83.57;102491.81;4995381;28;20063;-82
2021/06/07 02:58:23;;;;;;;0.20;0.20;;;;;;;11.19;83.63;102516.31;4952156;28;20058;-81
2021/06/07 03:01:01;;;;;;;0.10;0.10;;;;;;;11.10;83.68;102505.50;4967089;28;20476;-81
2021/06/07 03:03:27;;;;;;;0.10;0.10;;;;;;;11.14;83.77;102513.13;4966348;28;20104;-82
2021/06/07 03:05:55;;;;;;;0.10;0.10;;;;;;;11.17;81.87;102510.34;4973066;28;20083;-81
2021/06/07 03:08:24;;;;;;;0.10;0.10;;;;;;;11.18;81.87;102514.63;5002409;28;20133;-82
2021/06/07 03:10:53;;;;;;;0.10;0.10;;;;;;;11.05;81.75;102497.09;4992381;28;20049;-82
2021/06/07 03:13:19;;;;;;;0.20;0.20;;;;;;;11.11;82.44;102504.59;4977362;28;20488;-82
2021/06/07 03:15:46;;;;;;;0.30;0.30;;;;;;;10.93;82.55;102474.28;4987540;28;20439;-82
2021/06/07 03:18:12;;;;;;;0.10;0.10;;;;;;;11.13;84.20;102505.34;4961408;28;20408;-84
2021/06/07 03:20:38;;;;;;;0.10;0.10;;;;;;;11.18;82.47;102512.03;4985098;28;20054;-82
2021/06/07 03:23:08;;;;;;;0.20;0.20;;;;;;;11.07;83.10;102496.09;4990032;28;20038;-82
2021/06/07 03:25:34;;;;;;;0.15;0.15;;;;;;;11.21;81.93;102518.84;4986494;28;20038;-82
2021/06/07 03:28:00;;;;;;;0.20;0.20;;;;;;;10.98;82.75;102477.50;4977629;28;20042;-82
2021/06/07 03:30:27;;;;;;;0.10;0.10;;;;;;;11.26;83.12;102515.97;4980185;28;20049;-82
2021/06/07 03:32:53;;;;;;;0.10;0.10;;;;;;;11.15;83.12;102495.69;5003978;28;20034;-82
2021/06/07 03:35:19;;;;;;;0.10;0.10;;;;;;;11.28;83.16;102517.56;4974990;28;20050;-82
2021/06/07 03:37:46;;;;;;;0.20;0.20;;;;;;;11.19;83.11;102507.66;4964920;28;20038;-82
2021/06/07 03:40:15;;;;;;;0.10;0.10;;;;;;;11.21;83.45;102497.97;4962317;28;20043;-82
2021/06/07 03:42:41;;;;;;;0.20;0.20;;;;;;;11.13;82.30;102479.28;5003088;28;20037;-82
2021/06/07 03:45:09;;;;;;;0.20;0.20;;;;;;;11.14;82.91;102476.59;4975967;28;20066;-82
2021/06/07 03:47:34;;;;;;;0.20;0.20;;;;;;;11.22;83.28;102486.63;4987202;28;20035;-82
2021/06/07 03:50:00;;;;;;;0.20;0.20;;;;;;;11.16;83.77;102476.53;4994957;28;20085;-82
2021/06/07 03:52:26;;;;;;;0.10;0.10;;;;;;;11.09;84.05;102478.59;4987070;28;20046;-82
2021/06/07 03:54:51;;;;;;;0.10;0.10;;;;;;;11.05;83.46;102468.44;4989595;28;20393;-82
2021/06/07 03:57:17;;;;;;;0.20;0.20;;;;;;;11.16;83.89;102497.38;4989557;28;20035;-82
2021/06/07 03:59:43;;;;;;;0.20;0.20;;;;;;;10.94;83.99;102463.78;4974735;28;20050;-82
2021/06/07 04:02:10;;;;;;;0.20;0.20;;;;;;;10.98;84.65;102482.72;4962888;28;20139;-82
2021/06/07 04:04:36;;;;;;;0.10;0.10;;;;;;;11.02;84.66;102495.50;4976411;28;20145;-82
2021/06/07 04:07:03;;;;;;;0.20;0.20;;;;;;;10.95;86.30;102488.94;4970346;28;20432;-82
2021/06/07 04:09:29;;;;;;;0.10;0.10;;;;;;;10.91;86.05;102490.00;4985530;28;20037;-82
2021/06/07 04:11:55;;;;;;;0.20;0.20;;;;;;;10.79;85.25;102481.09;4958912;28;20037;-83
2021/06/07 04:14:20;;;;;;;0.20;0.20;;;;;;;10.94;85.83;102500.25;4985774;28;20092;-82
2021/06/07 04:16:46;;;;;;;0.10;0.10;;;;;;;10.87;85.68;102498.91;4972273;28;20043;-82
2021/06/07 04:19:12;;;;;;;0.20;0.20;;;;;;;10.82;84.77;102486.13;4999568;28;20038;-82
2021/06/07 04:21:38;;;;;;;0.20;0.20;;;;;;;10.86;85.39;102494.63;4960681;28;20038;-81
2021/06/07 04:24:05;;;;;;;0.20;0.20;;;;;;;10.90;85.40;102503.97;4993460;28;20400;-82
2021/06/07 04:26:31;;;;;;;0.10;0.10;;;;;;;10.85;85.36;102499.00;4951803;28;20070;-82
2021/06/07 04:28:56;;;;;;;0.10;0.10;;;;;;;10.93;85.18;102509.00;4953608;28;20090;-82
2021/06/07 04:31:22;;;;;;;0.17;0.17;;;;;;;10.96;85.77;102511.47;4990555;28;20067;-82
2021/06/07 04:33:47;;;;;;;0.20;0.20;;;;;;;10.85;85.79;102503.38;4960900;28;20038;-82
2021/06/07 04:36:13;;;;;;;0.20;0.20;;;;;;;10.81;85.51;102492.28;4960813;28;20548;-82
2021/06/07 04:38:39;;;;;;;0.10;0.10;;;;;;;10.89;85.85;102492.69;4985971;28;20045;-82
2021/06/07 04:41:04;;;;;;;0.20;0.20;;;;;;;10.92;86.09;102506.50;4957363;28;20061;-82
2021/06/07 04:43:30;;;;;;;0.10;0.10;;;;;;;10.90;86.46;102489.16;4971244;28;20057;-81
2021/06/07 04:45:55;;;;;;;0.10;0.10;;;;;;;10.87;86.14;102478.91;4969798;28;20046;-82
2021/06/07 04:48:21;;;;;;;0.13;0.13;;;;;;;10.98;86.20;102495.75;4961951;28;20035;-82
2021/06/07 04:50:46;;;;;;;0.10;0.10;;;;;;;10.99;86.27;102492.22;4990548;28;20061;-82
2021/06/07 04:53:12;;;;;;;0.10;0.10;;;;;;;11.07;86.59;102506.53;4993576;28;20035;-82
2021/06/07 04:55:52;;;;;;;0.20;0.20;;;;;;;11.10;85.89;102495.09;4959986;28;20047;-82
2021/06/07 04:58:22;;;;;;;0.20;0.20;;;;;;;11.27;86.38;102518.50;5002026;28;20416;-82
2021/06/07 05:00:50;;;;;;;0.20;0.20;;;;;;;11.32;85.60;102513.06;4987022;28;20030;-82
2021/06/07 05:03:16;;;;;;;0.20;0.20;;;;;;;11.13;86.39;102479.28;4989937;28;20026;-82
2021/06/07 05:05:42;;;;;;;0.20;0.20;;;;;;;11.43;85.77;102516.75;5001902;28;20045;-82
2021/06/07 05:08:09;;;;;;;0.10;0.10;;;;;;;11.50;85.46;102512.88;4956691;28;20053;-82
2021/06/07 05:10:34;;;;;;;0.20;0.20;;;;;;;11.54;85.25;102510.94;4995188;28;20043;-82
2021/06/07 05:13:00;;;;;;;0.10;0.10;;;;;;;11.68;84.95;102524.09;4973983;28;21234;-82
2021/06/07 05:15:26;;;;;;;0.10;0.10;;;;;;;11.62;84.93;102513.97;4966472;28;20069;-82
2021/06/07 05:17:52;;;;;;;0.10;0.10;;;;;;;11.67;85.18;102503.25;4990954;28;20155;-82
2021/06/07 05:20:20;;;;;;;0.20;0.20;;;;;;;11.76;85.29;102510.59;4974510;28;20038;-82
2021/06/07 05:22:46;;;;;;;0.20;0.20;;;;;;;11.88;85.02;102525.59;4986698;28;20058;-82
2021/06/07 05:25:12;;;;;;;0.10;0.10;;;;;;;11.85;84.95;102515.34;4984468;28;20034;-82
2021/06/07 05:27:38;;;;;;;0.20;0.20;;;;;;;11.95;85.64;102520.88;4983572;28;20034;-82
2021/06/07 05:30:04;;;;;;;0.15;0.15;;;;;;;12.04;85.72;102525.59;4956525;28;20101;-82
2021/06/07 05:32:30;;;;;;;0.20;0.20;;;;;;;12.03;85.38;102516.06;4984616;28;20046;-81
2021/06/07 05:34:56;;;;;;;0.10;0.10;;;;;;;12.14;85.39;102520.66;4985634;28;20512;-82
2021/06/07 05:37:22;;;;;;;0.20;0.20;;;;;;;12.12;85.48;102505.09;4986711;28;20080;-82
2021/06/07 05:39:49;;;;;;;0.20;0.20;;;;;;;12.22;85.25;102510.63;4956033;28;20089;-82
2021/06/07 05:42:15;;;;;;;0.20;0.20;;;;;;;12.28;85.46;102507.66;4985285;28;20073;-82
2021/06/07 05:44:40;;;;;;;0.20;0.20;;;;;;;12.40;85.34;102523.47;4960971;28;20062;-83
2021/06/07 05:47:06;;;;;;;0.20;0.20;;;;;;;12.41;84.48;102506.00;4939426;28;20595;-82
2021/06/07 05:49:35;;;;;;;0.20;0.20;;;;;;;12.52;84.38;102515.81;4955211;28;20514;-83
2021/06/07 05:52:00;;;;;;;0.20;0.20;;;;;;;12.59;84.38;102522.38;4957508;28;20035;-82
2021/06/07 05:54:27;;;;;;;0.22;0.22;;;;;;;12.56;84.51;102504.22;4982812;28;20502;-82
2021/06/07 05:56:53;;;;;;;0.10;0.10;;;;;;;12.79;83.45;102508.94;4961884;28;20049;-82
2021/06/07 05:59:20;;;;;;;0.10;0.10;;;;;;;12.97;82.94;102531.38;4979985;28;20039;-82
2021/06/07 06:01:46;;;;;;;0.30;0.20;;;;;;;12.87;83.15;102511.09;4965183;28;20054;-82
2021/06/07 06:04:11;;;;;;;0.10;0.10;;;;;;;13.01;82.39;102504.09;4980527;28;20727;-82
2021/06/07 06:06:37;;;;;;;0.10;0.10;;;;;;;13.16;81.18;102517.16;4956095;28;20539;-82
2021/06/07 06:09:03;;;;;;;0.20;0.20;;;;;;;13.34;79.87;102534.34;4970560;28;20042;-83
2021/06/07 06:11:28;;;;;;;0.20;0.20;;;;;;;13.25;80.77;102517.44;4991772;28;20038;-83
2021/06/07 06:13:54;;;;;;;0.13;0.13;;;;;;;13.35;80.56;102527.34;4973946;28;20049;-83
2021/06/07 06:16:21;;;;;;;0.10;0.10;;;;;;;13.40;80.21;102522.66;4988215;28;20064;-82
2021/06/07 06:18:47;;;;;;;0.10;0.10;;;;;;;13.52;80.63;102532.38;4965699;28;20448;-82
2021/06/07 06:21:12;;;;;;;0.13;0.13;;;;;;;13.57;80.66;102538.13;4984848;28;20118;-83
2021/06/07 06:23:39;;;;;;;0.10;0.10;;;;;;;13.59;79.40;102528.41;5001152;28;20069;-83
2021/06/07 06:26:06;;;;;;;0.20;0.20;;;;;;;13.59;79.57;102526.63;4986293;28;20125;-82
2021/06/07 06:28:32;;;;;;;0.10;0.10;;;;;;;13.72;78.68;102516.22;4986069;28;20096;-83
2021/06/07 06:30:58;;;;;;;0.10;0.10;;;;;;;13.88;78.95;102535.25;4975105;28;20046;-82
2021/06/07 06:33:23;;;;;;;0.20;0.20;;;;;;;13.87;80.25;102528.34;4990992;28;20034;-83
2021/06/07 06:35:49;;;;;;;0.20;0.20;;;;;;;13.95;79.11;102519.13;4974537;28;20034;-83
2021/06/07 06:38:16;;;;;;;0.20;0.20;;;;;;;14.05;76.50;102525.47;4958210;28;20105;-83
2021/06/07 06:40:42;;;;;;;0.25;0.25;;;;;;;14.13;76.94;102526.63;4975979;28;20038;-82
2021/06/07 06:43:08;;;;;;;0.35;0.20;;;;;;;14.09;74.90;102505.97;4980874;28;20046;-83
2021/06/07 06:45:34;;;;;;;0.10;0.10;;;;;;;14.22;74.94;102530.44;4974333;28;20483;-83
2021/06/07 06:48:00;;;;;;;0.13;0.13;;;;;;;14.11;75.01;102498.84;4977741;28;20566;-82
2021/06/07 06:50:34;;;;;;;0.20;0.20;;;;;;;14.26;74.48;102518.78;4971314;28;20050;-83
2021/06/07 06:53:01;;;;;;;0.20;0.20;;;;;;;14.44;71.38;102529.88;4992344;28;20038;-83
2021/06/07 06:55:27;;;;;;;0.10;0.10;;;;;;;14.42;70.41;102514.22;4984156;28;20547;-83
2021/06/07 06:57:52;;;;;;;0.10;0.10;;;;;;;14.53;69.79;102526.59;5001101;28;20030;-82
2021/06/07 07:00:19;;;;;;;0.15;0.15;;;;;;;14.65;70.95;102530.19;4994338;28;20054;-83
2021/06/07 07:02:44;;;;;;;0.17;0.17;;;;;;;14.78;68.56;102525.78;4982704;28;20046;-83
2021/06/07 07:05:11;;;;;;;0.10;0.10;;;;;;;14.84;69.30;102530.59;4987542;28;20514;-82
2021/06/07 07:07:36;;;;;;;0.10;0.10;;;;;;;14.89;69.89;102532.91;4974946;28;20034;-82
2021/06/07 07:10:04;;;;;;;0.10;0.10;;;;;;;14.89;67.32;102522.41;4956048;28;20042;-82
2021/06/07 07:12:29;;;;;;;0.20;0.20;;;;;;;14.95;68.87;102522.00;4975829;28;20041;-83
2021/06/07 07:14:55;;;;;;;0.20;0.20;;;;;;;15.03;68.43;102519.69;4983281;28;20054;-83
2021/06/07 07:17:21;;;;;;;0.20;0.20;;;;;;;15.20;67.95;102521.13;4983944;28;20046;-83
2021/06/07 07:19:47;;;;;;;0.10;0.10;;;;;;;15.17;65.83;102522.19;4967964;28;20034;-83
2021/06/07 07:22:15;;;;;;;0.10;0.10;;;;;;;15.29;67.74;102528.38;4992909;28;20525;-82
2021/06/07 07:24:45;;;;;;;0.20;0.20;;;;;;;15.51;66.82;102539.00;4973902;28;20503;-82
2021/06/07 07:27:16;;;;;;;0.15;0.15;;;;;;;15.52;66.92;102532.81;4967721;28;20042;-83
2021/06/07 07:29:43;;;;;;;0.13;0.13;;;;;;;15.54;64.87;102528.28;4986601;28;20089;-82
2021/06/07 07:32:10;;;;;;;0.17;0.17;;;;;;;15.68;63.45;102541.28;4978445;28;20050;-83
2021/06/07 07:34:35;;;;;;;0.20;0.20;;;;;;;15.63;64.68;102526.81;4980704;28;20145;-83
2021/06/07 07:37:02;;;;;;;0.20;0.20;;;;;;;15.79;63.61;102537.88;4988410;28;20121;-82
2021/06/07 07:39:28;;;;;;;0.10;0.10;;;;;;;15.85;66.67;102545.31;4993931;28;20035;-82
2021/06/07 07:41:56;;;;;;;0.20;0.20;;;;;;;15.80;65.06;102525.56;4978975;28;20043;-83
2021/06/07 07:44:22;;;;;;;0.13;0.13;;;;;;;15.83;66.51;102533.25;4981130;28;20503;-82
2021/06/07 07:46:48;;;;;;;0.20;0.20;;;;;;;15.88;65.64;102529.34;4957598;28;20035;-83
2021/06/07 07:49:14;;;;;;;0.20;0.20;;;;;;;15.87;64.83;102525.03;4984218;28;20100;-83
2021/06/07 07:51:41;;;;;;;0.20;0.20;;;;;;;16.13;66.17;102545.91;4977912;28;20026;-82
2021/06/07 07:54:08;;;;;;;0.20;0.20;;;;;;;16.19;66.21;102542.84;4981912;28;20125;-83
2021/06/07 07:56:34;;;;;;;0.10;0.10;;;;;;;16.24;64.85;102527.56;4990240;28;20393;-82
2021/06/07 07:59:00;;;;;;;0.15;0.15;;;;;;;16.37;65.40;102535.38;4970737;28;20547;-82
2021/06/07 08:01:26;;;;;;;0.10;0.10;;;;;;;16.56;65.97;102539.13;4979981;28;20042;-82
2021/06/07 08:03:52;;;;;;;0.20;0.20;;;;;;;16.60;64.87;102534.47;4985965;28;20049;-82
2021/06/07 08:06:18;;;;;;;0.13;0.13;;;;;;;16.67;63.24;102533.06;4986276;28;20038;-82
2021/06/07 08:08:43;;;;;;;0.10;0.10;;;;;;;16.77;63.13;102522.69;4973458;28;20046;-82
2021/06/07 08:11:09;;;;;;;0.20;0.20;;;;;;;16.85;64.59;102534.25;4999970;28;20030;-82
2021/06/07 08:13:34;;;;;;;0.20;0.20;;;;;;;16.77;63.52;102496.38;4981445;28;20132;-82
2021/06/07 08:16:00;;;;;;;0.10;0.10;;;;;;;16.90;62.74;102528.66;4985638;28;20059;-82
2021/06/07 08:18:25;;;;;;;0.10;0.10;;;;;;;16.94;64.32;102518.75;4984468;28;20154;-82
2021/06/07 08:20:51;;;;;;;0.20;0.20;;;;;;;16.80;61.35;102511.91;4961072;28;20042;-83
2021/06/07 08:23:17;;;;;;;0.10;0.10;;;;;;;16.87;63.32;102506.03;4963570;28;20046;-82
2021/06/07 08:25:43;;;;;;;0.10;0.10;;;;;;;17.04;62.65;102530.19;4969238;28;20045;-82
2021/06/07 08:28:09;;;;;;;0.10;0.10;;;;;;;16.98;60.82;102499.13;4963517;28;20054;-82
2021/06/07 08:30:36;;;;;;;0.10;0.10;;;;;;;17.24;60.68;102531.28;4996037;28;20548;-83
2021/06/07 08:33:03;;;;;;;0.10;0.10;;;;;;;17.19;59.80;102515.84;4980581;28;20046;-84
2021/06/07 08:35:30;;;;;;;0.10;0.10;;;;;;;17.24;57.75;102526.03;4974552;28;20266;-81
2021/06/07 08:37:56;;;;;;;0.10;0.10;;;;;;;17.19;57.93;102511.41;4953344;28;20061;-83
2021/06/07 08:40:21;;;;;;;0.10;0.10;;;;;;;17.38;58.93;102534.47;4993864;28;20038;-83
2021/06/07 08:42:47;;;;;;;0.10;0.10;;;;;;;17.45;60.57;102538.31;4975433;28;20038;-83
2021/06/07 08:45:20;;;;;;;0.10;0.10;;;;;;;17.52;59.41;102530.75;4989891;28;20155;-83
2021/06/07 08:47:47;;;;;;;0.10;0.10;;;;;;;17.62;60.14;102515.91;5003525;28;20037;-83
2021/06/07 08:50:17;;;;;;;0.10;0.10;;;;;;;17.76;59.49;102518.25;4960740;28;20027;-83
2021/06/07 08:52:44;;;;;;;0.10;0.10;;;;;;;17.77;58.88;102521.72;4968630;28;20154;-83
2021/06/07 08:55:12;;;;;;;0.13;0.13;;;;;;;18.00;61.31;102530.41;4944845;28;20030;-83
2021/06/07 08:57:40;;;;;;;0.10;0.10;;;;;;;18.00;58.11;102514.59;4994112;28;20038;-83
2021/06/07 09:00:07;;;;;;;0.10;0.10;;;;;;;18.08;55.85;102512.97;4975971;28;20041;-83
2021/06/07 09:02:39;;;;;;;0.40;0.20;;;;;;;18.10;55.65;102508.41;4986519;28;20035;-83
2021/06/07 09:05:05;;;;;;;0.10;0.10;;;;;;;18.30;57.46;102525.19;4966555;28;20042;-83
2021/06/07 09:07:31;;;;;;;0.13;0.13;;;;;;;18.25;56.83;102537.09;4995484;28;20137;-83
2021/06/07 09:10:12;;;;;;;0.10;0.10;;;;;;;18.09;54.92;102506.72;4967292;28;20494;-83
2021/06/07 09:12:41;;;;;;;0.20;0.20;;;;;;;18.29;55.80;102520.06;4977615;28;20479;-83
2021/06/07 09:15:07;;;;;;;0.20;0.20;;;;;;;18.25;54.19;102519.47;4972488;28;20539;-83
2021/06/07 09:17:44;;;;;;;0.20;0.20;;;;;;;18.44;54.88;102524.03;4967172;28;20050;-83
2021/06/07 09:20:14;;;;;;;0.20;0.20;;;;;;;18.41;54.68;102519.88;4978211;28;20458;-84
2021/06/07 09:22:54;;;;;;;0.15;0.15;;;;;;;18.53;54.10;102527.72;4983655;28;20046;-83
2021/06/07 09:25:27;;;;;;;0.10;0.10;;;;;;;18.64;57.18;102525.03;4969858;28;20523;-83
2021/06/07 09:28:05;;;;;;;0.10;0.10;;;;;;;18.91;56.15;102530.59;4995990;28;20034;-83
2021/06/07 09:30:35;;;;;;;0.15;0.15;;;;;;;18.91;52.82;102530.59;4973455;28;20047;-83
2021/06/07 09:33:16;;;;;;;0.10;0.10;;;;;;;18.97;53.00;102532.69;4984874;28;20119;-83
2021/06/07 09:35:42;;;;;;;0.13;0.13;;;;;;;18.87;51.39;102496.69;4957415;28;20042;-85
2021/06/07 09:38:07;;;;;;;0.43;0.10;;;;;;;19.21;54.80;102521.81;4977103;28;20037;-83
2021/06/07 09:40:33;;;;;;;0.10;0.10;;;;;;;19.33;52.78;102526.00;4966337;28;20042;-83
2021/06/07 09:43:02;;;;;;;0.10;0.10;;;;;;;19.35;53.38;102519.75;4978636;28;20069;-84
2021/06/07 09:45:54;;;;;;;0.10;0.10;;;;;;;19.42;52.22;102531.44;5004856;28;20499;-85
2021/06/07 09:48:26;;;;;;;0.10;0.10;;;;;;;19.40;51.00;102525.47;4988532;28;20042;-84
2021/06/07 09:50:56;;;;;;;0.10;0.10;;;;;;;19.44;52.19;102534.78;4989084;28;20049;-84
2021/06/07 09:53:43;;;;;;;0.10;0.10;;;;;;;19.55;52.81;102532.03;4970534;28;20033;-84
2021/06/07 09:56:09;;;;;;;0.10;0.10;;;;;;;19.47;50.71;102519.50;4981827;28;20300;-83
2021/06/07 09:58:36;;;;;;;0.10;0.10;;;;;;;19.66;52.35;102529.28;4991932;28;20068;-85
2021/06/07 10:01:31;;;;;;;0.10;0.10;;;;;;;19.69;51.64;102523.72;4938153;28;20445;-83
2021/06/07 10:03:58;;;;;;;0.10;0.10;;;;;;;19.81;53.85;102527.09;4962220;28;20050;-82
2021/06/07 10:06:25;;;;;;;0.10;0.10;;;;;;;19.87;52.63;102524.72;4972753;28;20039;-84
2021/06/07 10:08:57;;;;;;;0.10;0.10;;;;;;;19.95;50.14;102518.75;4975324;28;20033;-83
2021/06/07 10:11:35;;;;;;;0.10;0.10;;;;;;;20.15;51.36;102532.78;4968436;28;20038;-84
2021/06/07 10:14:14;;;;;;;0.00;0.00;;;;;;;19.94;49.50;102503.84;4968998;28;20046;-84
2021/06/07 10:17:02;;;;;;;0.10;0.10;;;;;;;20.25;50.30;102538.03;4978882;28;21078;-85
2021/06/07 10:19:48;;;;;;;0.10;0.10;;;;;;;20.13;48.25;102532.94;4974840;28;20407;-84
2021/06/07 10:22:16;;;;;;;0.10;0.10;;;;;;;20.14;49.61;102536.41;4980597;28;20046;-85
2021/06/07 10:24:42;;;;;;;0.10;0.10;;;;;;;20.31;52.79;102532.22;4975077;28;20191;-85
2021/06/07 10:27:08;;;;;;;0.10;0.10;;;;;;;20.32;49.50;102528.59;4980846;28;20408;-83
2021/06/07 10:29:41;;;;;;;0.10;0.10;;;;;;;20.34;47.54;102518.69;4949240;28;20038;-85
2021/06/07 10:32:13;;;;;;;0.13;0.13;;;;;;;20.48;48.07;102527.06;4987373;28;20096;-84
2021/06/07 10:34:57;;;;;;;0.10;0.10;;;;;;;20.64;49.53;102522.94;4966441;28;20439;-85
2021/06/07 10:37:25;;;;;;;0.17;0.17;;;;;;;20.64;47.97;102537.03;4982597;28;20392;-85
2021/06/07 10:39:51;;;;;;;0.10;0.10;;;;;;;20.73;48.93;102517.63;4950679;28;20034;-84
2021/06/07 10:42:19;;;;;;;0.10;0.10;;;;;;;20.74;46.51;102510.53;4978817;28;20034;-85
2021/06/07 10:44:57;;;;;;;0.10;0.10;;;;;;;20.98;47.88;102510.00;4968082;28;20034;-85
2021/06/07 10:47:45;;;;;;;0.10;0.10;;;;;;;21.00;48.86;102523.94;4983879;28;20034;-85
2021/06/07 10:50:13;;;;;;;0.10;0.10;;;;;;;21.19;50.80;102520.38;4975130;28;20066;-85
2021/06/07 10:52:50;;;;;;;0.10;0.10;;;;;;;21.31;48.63;102529.78;4980478;28;20167;-85
2021/06/07 10:55:18;;;;;;;0.10;0.10;;;;;;;21.09;47.30;102512.47;4979815;28;20094;-85
2021/06/07 10:57:53;;;;;;;0.10;0.10;;;;;;;21.10;46.44;102516.78;4969231;28;20042;-87
2021/06/07 11:00:23;;;;;;;0.10;0.10;;;;;;;21.24;50.77;102518.09;4947255;28;20129;-85
2021/06/07 11:02:52;;;;;;;0.10;0.10;;;;;;;21.26;48.73;102508.22;4979416;28;20121;-85
2021/06/07 11:05:19;;;;;;;0.10;0.10;;;;;;;21.54;47.56;102506.34;4969766;28;20479;-86
2021/06/07 11:07:59;;;;;;;0.10;0.10;;;;;;;21.47;50.81;102510.59;4964632;28;20499;-85
2021/06/07 11:10:36;;;;;;;0.10;0.10;;;;;;;21.51;46.31;102504.84;4986031;28;20042;-85
2021/06/07 11:13:09;;;;;;;0.10;0.10;;;;;;;21.70;49.97;102512.66;4973823;28;20066;-85
2021/06/07 11:15:37;;;;;;;0.10;0.10;;;;;;;22.14;54.46;102527.81;4966160;28;20044;-85
2021/06/07 11:18:32;;;;;;;0.03;0.03;;;;;;;22.16;47.69;102520.53;4981873;28;20046;-85
2021/06/07 11:21:07;;;;;;;0.10;0.10;;;;;;;22.28;45.31;102519.31;4948945;28;20138;-85
2021/06/07 11:23:44;;;;;;;0.10;0.10;;;;;;;22.30;46.53;102519.97;4997595;28;20045;-85
2021/06/07 11:26:13;;;;;;;0.08;0.08;;;;;;;22.50;45.90;102510.00;4965900;28;20113;-84
2021/06/07 11:28:46;;;;;;;0.10;0.10;;;;;;;22.68;46.53;102524.03;4971756;28;20054;-84